Aviation Digital Data Service (ADDS)

Output produced by TAFs form (0148 UTC 18 October 2017)
found at http://www.aviationweather.gov/adds/tafs/
 
METAR text: KBHM 180053Z 00000KT 10SM CLR 14/10 A3026 RMK AO2 SLP244 T01390100
Conditions at: KBHM (BIRMINGHAM , AL, US) observed 0053 UTC 18 October 2017
Temperature: 13.9°C (57°F)
Dewpoint: 10.0°C (50°F) [RH = 77%]
Pressure (altimeter): 30.26 inches Hg (1024.8 mb)
[Sea-level pressure: 1024.4 mb]
Winds: calm
Visibility: 10 or more miles (16+ km)
Ceiling: at least 12,000 feet AGL
Clouds: sky clear below 12,000 feet AGL
Weather: no significant weather observed at this time

Forecast for: KBHM (BIRMINGHAM , AL, US)
Text: KBHM 172321Z 1800/1824 00000KT P6SM SKC
Forecast period: 0000 to 1500 UTC 18 October 2017
Forecast type: FROM: standard forecast or significant change
Winds: calm
Visibility: 6 or more miles (10+ km)
Clouds: clear skies
Weather: no significant weather forecast for this period
Text: FM181500 10007KT P6SM SKC
Forecast period: 1500 UTC 18 October 2017 to 0000 UTC 19 October 2017
Forecast type: FROM: standard forecast or significant change
Winds: from the E (100 degrees) at 8 MPH (7 knots; 3.6 m/s)
Visibility: 6 or more miles (10+ km)
Clouds: clear skies
Weather: no significant weather forecast for this period